sensor_id;sensor_type;location;lat;lon;timestamp;P1;durP1;ratioP1;P2;durP2;ratioP2
21266;SDS011;10791;53.108;18.326;2022-08-04T00:10:54;9.27;;;7.70;;
21266;SDS011;10791;53.108;18.326;2022-08-04T00:16:03;11.30;;;9.10;;
21266;SDS011;10791;53.108;18.326;2022-08-04T00:21:09;9.30;;;7.85;;
21266;SDS011;10791;53.108;18.326;2022-08-04T00:26:16;14.95;;;10.23;;
21266;SDS011;10791;53.108;18.326;2022-08-04T00:31:22;14.20;;;9.90;;
21266;SDS011;10791;53.108;18.326;2022-08-04T00:36:46;11.77;;;9.75;;
21266;SDS011;10791;53.108;18.326;2022-08-04T00:58:11;11.77;;;10.30;;
21266;SDS011;10791;53.108;18.326;2022-08-04T01:04:02;12.50;;;9.75;;
21266;SDS011;10791;53.108;18.326;2022-08-04T01:09:16;14.32;;;9.18;;
21266;SDS011;10791;53.108;18.326;2022-08-04T01:20:09;11.80;;;10.00;;
21266;SDS011;10791;53.108;18.326;2022-08-04T01:31:34;13.63;;;10.73;;
21266;SDS011;10791;53.108;18.326;2022-08-04T01:36:46;13.82;;;11.98;;
21266;SDS011;10791;53.108;18.326;2022-08-04T01:42:04;13.48;;;11.43;;
21266;SDS011;10791;53.108;18.326;2022-08-04T01:47:10;12.93;;;11.50;;
21266;SDS011;10791;53.108;18.326;2022-08-04T01:52:16;13.65;;;11.77;;
21266;SDS011;10791;53.108;18.326;2022-08-04T01:57:20;13.70;;;11.60;;
21266;SDS011;10791;53.108;18.326;2022-08-04T02:02:40;13.90;;;11.95;;
21266;SDS011;10791;53.108;18.326;2022-08-04T02:18:41;13.57;;;12.03;;
21266;SDS011;10791;53.108;18.326;2022-08-04T02:24:16;14.03;;;12.60;;
21266;SDS011;10791;53.108;18.326;2022-08-04T02:35:44;13.40;;;11.77;;
21266;SDS011;10791;53.108;18.326;2022-08-04T02:40:22;15.57;;;13.45;;
21266;SDS011;10791;53.108;18.326;2022-08-04T02:45:28;15.97;;;13.70;;
21266;SDS011;10791;53.108;18.326;2022-08-04T02:50:33;15.50;;;13.00;;
21266;SDS011;10791;53.108;18.326;2022-08-04T02:55:39;15.43;;;13.87;;
21266;SDS011;10791;53.108;18.326;2022-08-04T03:00:52;14.77;;;13.27;;
21266;SDS011;10791;53.108;18.326;2022-08-04T04:00:54;23.33;;;16.03;;
21266;SDS011;10791;53.108;18.326;2022-08-04T04:22:29;25.00;;;18.47;;
21266;SDS011;10791;53.108;18.326;2022-08-04T04:28:10;23.17;;;19.07;;
21266;SDS011;10791;53.108;18.326;2022-08-04T04:39:31;25.73;;;22.98;;
21266;SDS011;10791;53.108;18.326;2022-08-04T04:45:09;26.80;;;23.35;;
21266;SDS011;10791;53.108;18.326;2022-08-04T04:50:36;29.25;;;25.40;;
21266;SDS011;10791;53.108;18.326;2022-08-04T04:56:00;31.15;;;27.65;;
21266;SDS011;10791;53.108;18.326;2022-08-04T05:01:28;29.02;;;26.02;;
21266;SDS011;10791;53.108;18.326;2022-08-04T05:18:06;28.25;;;25.20;;
21266;SDS011;10791;53.108;18.326;2022-08-04T05:23:18;28.98;;;23.95;;
21266;SDS011;10791;53.108;18.326;2022-08-04T05:33:48;25.35;;;22.73;;
21266;SDS011;10791;53.108;18.326;2022-08-04T05:39:05;25.13;;;22.60;;
21266;SDS011;10791;53.108;18.326;2022-08-04T05:44:15;24.33;;;21.60;;
21266;SDS011;10791;53.108;18.326;2022-08-04T05:49:22;24.23;;;21.75;;
21266;SDS011;10791;53.108;18.326;2022-08-04T05:54:30;23.83;;;20.98;;
21266;SDS011;10791;53.108;18.326;2022-08-04T05:59:36;22.90;;;20.52;;
21266;SDS011;10791;53.108;18.326;2022-08-04T06:04:41;22.50;;;20.33;;
21266;SDS011;10791;53.108;18.326;2022-08-04T06:09:50;21.15;;;19.25;;
21266;SDS011;10791;53.108;18.326;2022-08-04T06:14:56;21.52;;;19.38;;
21266;SDS011;10791;53.108;18.326;2022-08-04T06:20:04;19.85;;;17.85;;
21266;SDS011;10791;53.108;18.326;2022-08-04T06:25:28;19.60;;;17.70;;
21266;SDS011;10791;53.108;18.326;2022-08-04T06:30:35;19.80;;;17.90;;
21266;SDS011;10791;53.108;18.326;2022-08-04T06:35:43;18.80;;;16.55;;
21266;SDS011;10791;53.108;18.326;2022-08-04T06:40:47;17.10;;;15.40;;
21266;SDS011;10791;53.108;18.326;2022-08-04T06:45:54;15.48;;;14.02;;
21266;SDS011;10791;53.108;18.326;2022-08-04T06:50:59;17.85;;;14.90;;
21266;SDS011;10791;53.108;18.326;2022-08-04T06:56:24;16.13;;;14.50;;
21266;SDS011;10791;53.108;18.326;2022-08-04T07:01:31;15.82;;;14.40;;
21266;SDS011;10791;53.108;18.326;2022-08-04T07:06:37;15.50;;;14.00;;
21266;SDS011;10791;53.108;18.326;2022-08-04T07:11:41;15.23;;;13.63;;
21266;SDS011;10791;53.108;18.326;2022-08-04T07:16:48;17.00;;;15.20;;
21266;SDS011;10791;53.108;18.326;2022-08-04T07:22:07;15.50;;;14.10;;
21266;SDS011;10791;53.108;18.326;2022-08-04T07:27:26;16.02;;;14.73;;
21266;SDS011;10791;53.108;18.326;2022-08-04T07:32:49;15.02;;;13.18;;
21266;SDS011;10791;53.108;18.326;2022-08-04T07:37:55;14.88;;;13.32;;
21266;SDS011;10791;53.108;18.326;2022-08-04T07:43:01;13.15;;;11.80;;
21266;SDS011;10791;53.108;18.326;2022-08-04T07:48:05;13.65;;;12.27;;
21266;SDS011;10791;53.108;18.326;2022-08-04T07:53:12;14.65;;;13.23;;
21266;SDS011;10791;53.108;18.326;2022-08-04T07:58:38;15.80;;;14.13;;
21266;SDS011;10791;53.108;18.326;2022-08-04T08:03:42;16.30;;;13.75;;
21266;SDS011;10791;53.108;18.326;2022-08-04T08:08:46;14.15;;;12.82;;
21266;SDS011;10791;53.108;18.326;2022-08-04T08:13:49;10.98;;;10.00;;
21266;SDS011;10791;53.108;18.326;2022-08-04T08:18:54;13.82;;;11.38;;
21266;SDS011;10791;53.108;18.326;2022-08-04T08:23:57;12.20;;;10.15;;
21266;SDS011;10791;53.108;18.326;2022-08-04T08:29:02;10.90;;;9.93;;
21266;SDS011;10791;53.108;18.326;2022-08-04T08:34:06;10.52;;;7.85;;
21266;SDS011;10791;53.108;18.326;2022-08-04T08:39:16;9.18;;;8.25;;
21266;SDS011;10791;53.108;18.326;2022-08-04T09:12:13;8.55;;;7.60;;
21266;SDS011;10791;53.108;18.326;2022-08-04T09:17:40;8.27;;;7.15;;
21266;SDS011;10791;53.108;18.326;2022-08-04T09:23:05;8.35;;;7.00;;
21266;SDS011;10791;53.108;18.326;2022-08-04T09:34:24;8.13;;;6.90;;
21266;SDS011;10791;53.108;18.326;2022-08-04T09:45:39;7.28;;;6.28;;
21266;SDS011;10791;53.108;18.326;2022-08-04T09:51:39;9.52;;;7.18;;
21266;SDS011;10791;53.108;18.326;2022-08-04T10:02:46;7.00;;;6.40;;
21266;SDS011;10791;53.108;18.326;2022-08-04T10:24:29;7.07;;;6.38;;
21266;SDS011;10791;53.108;18.326;2022-08-04T10:30:02;7.45;;;5.53;;
21266;SDS011;10791;53.108;18.326;2022-08-04T10:35:16;6.63;;;5.95;;
21266;SDS011;10791;53.108;18.326;2022-08-04T10:40:47;15.20;;;7.18;;
21266;SDS011;10791;53.108;18.326;2022-08-04T10:51:17;7.18;;;6.47;;
21266;SDS011;10791;53.108;18.326;2022-08-04T10:56:54;8.05;;;6.38;;
21266;SDS011;10791;53.108;18.326;2022-08-04T11:02:09;9.07;;;6.53;;
21266;SDS011;10791;53.108;18.326;2022-08-04T11:07:36;10.10;;;6.13;;
21266;SDS011;10791;53.108;18.326;2022-08-04T11:13:12;8.90;;;5.47;;
21266;SDS011;10791;53.108;18.326;2022-08-04T11:31:07;8.07;;;4.88;;
21266;SDS011;10791;53.108;18.326;2022-08-04T11:43:16;7.57;;;5.25;;
21266;SDS011;10791;53.108;18.326;2022-08-04T11:48:57;8.95;;;5.47;;
21266;SDS011;10791;53.108;18.326;2022-08-04T11:54:09;5.20;;;4.70;;
21266;SDS011;10791;53.108;18.326;2022-08-04T11:59:28;5.20;;;4.80;;
21266;SDS011;10791;53.108;18.326;2022-08-04T12:10:13;15.60;;;6.13;;
21266;SDS011;10791;53.108;18.326;2022-08-04T12:16:02;5.60;;;5.10;;
21266;SDS011;10791;53.108;18.326;2022-08-04T12:21:52;8.43;;;5.43;;
21266;SDS011;10791;53.108;18.326;2022-08-04T12:27:02;6.40;;;5.05;;
21266;SDS011;10791;53.108;18.326;2022-08-04T12:32:15;5.40;;;5.00;;
21266;SDS011;10791;53.108;18.326;2022-08-04T12:48:13;7.68;;;5.57;;
21266;SDS011;10791;53.108;18.326;2022-08-04T12:53:25;5.63;;;4.93;;
21266;SDS011;10791;53.108;18.326;2022-08-04T12:58:52;5.28;;;4.78;;
21266;SDS011;10791;53.108;18.326;2022-08-04T13:04:10;6.57;;;5.72;;
21266;SDS011;10791;53.108;18.326;2022-08-04T13:09:18;5.60;;;5.10;;
21266;SDS011;10791;53.108;18.326;2022-08-04T13:14:27;8.30;;;5.35;;
21266;SDS011;10791;53.108;18.326;2022-08-04T13:19:36;6.28;;;5.78;;
21266;SDS011;10791;53.108;18.326;2022-08-04T13:24:42;6.43;;;5.82;;
21266;SDS011;10791;53.108;18.326;2022-08-04T13:30:06;8.25;;;5.75;;
21266;SDS011;10791;53.108;18.326;2022-08-04T13:35:24;6.43;;;5.32;;
21266;SDS011;10791;53.108;18.326;2022-08-04T13:40:49;5.57;;;5.07;;
21266;SDS011;10791;53.108;18.326;2022-08-04T13:45:57;6.53;;;5.88;;
21266;SDS011;10791;53.108;18.326;2022-08-04T13:51:08;6.50;;;5.18;;
21266;SDS011;10791;53.108;18.326;2022-08-04T13:56:13;10.10;;;5.80;;
21266;SDS011;10791;53.108;18.326;2022-08-04T14:01:19;7.38;;;5.35;;
21266;SDS011;10791;53.108;18.326;2022-08-04T14:06:50;7.57;;;6.15;;
21266;SDS011;10791;53.108;18.326;2022-08-04T14:12:04;6.68;;;5.80;;
21266;SDS011;10791;53.108;18.326;2022-08-04T14:17:31;6.90;;;5.95;;
21266;SDS011;10791;53.108;18.326;2022-08-04T14:22:35;7.80;;;5.97;;
21266;SDS011;10791;53.108;18.326;2022-08-04T14:33:04;7.45;;;5.78;;
21266;SDS011;10791;53.108;18.326;2022-08-04T14:38:40;7.47;;;5.97;;
21266;SDS011;10791;53.108;18.326;2022-08-04T14:43:51;6.25;;;5.65;;
21266;SDS011;10791;53.108;18.326;2022-08-04T14:49:10;6.25;;;5.72;;
21266;SDS011;10791;53.108;18.326;2022-08-04T14:54:14;6.25;;;5.65;;
21266;SDS011;10791;53.108;18.326;2022-08-04T14:59:20;7.05;;;6.05;;
21266;SDS011;10791;53.108;18.326;2022-08-04T15:04:23;7.22;;;5.78;;
21266;SDS011;10791;53.108;18.326;2022-08-04T15:09:28;7.32;;;6.32;;
21266;SDS011;10791;53.108;18.326;2022-08-04T15:14:33;8.52;;;6.72;;
21266;SDS011;10791;53.108;18.326;2022-08-04T15:19:39;7.30;;;6.15;;
21266;SDS011;10791;53.108;18.326;2022-08-04T15:24:57;6.80;;;6.20;;
21266;SDS011;10791;53.108;18.326;2022-08-04T15:30:02;7.97;;;6.25;;
21266;SDS011;10791;53.108;18.326;2022-08-04T15:35:09;9.05;;;6.15;;
21266;SDS011;10791;53.108;18.326;2022-08-04T15:40:18;7.28;;;6.65;;
21266;SDS011;10791;53.108;18.326;2022-08-04T15:51:23;8.60;;;7.25;;
21266;SDS011;10791;53.108;18.326;2022-08-04T16:01:37;10.27;;;7.28;;
21266;SDS011;10791;53.108;18.326;2022-08-04T16:06:41;7.63;;;6.82;;
21266;SDS011;10791;53.108;18.326;2022-08-04T16:11:45;11.45;;;7.53;;
21266;SDS011;10791;53.108;18.326;2022-08-04T16:16:49;13.25;;;8.55;;
21266;SDS011;10791;53.108;18.326;2022-08-04T16:21:53;8.52;;;7.50;;
21266;SDS011;10791;53.108;18.326;2022-08-04T16:27:02;9.10;;;8.10;;
21266;SDS011;10791;53.108;18.326;2022-08-04T16:32:12;10.30;;;7.43;;
21266;SDS011;10791;53.108;18.326;2022-08-04T16:37:18;9.23;;;8.25;;
21266;SDS011;10791;53.108;18.326;2022-08-04T16:42:32;10.30;;;7.97;;
21266;SDS011;10791;53.108;18.326;2022-08-04T16:52:51;10.80;;;9.02;;
21266;SDS011;10791;53.108;18.326;2022-08-04T16:57:56;10.45;;;8.90;;
21266;SDS011;10791;53.108;18.326;2022-08-04T17:03:06;9.93;;;8.45;;
21266;SDS011;10791;53.108;18.326;2022-08-04T17:08:12;10.02;;;8.65;;
21266;SDS011;10791;53.108;18.326;2022-08-04T17:13:32;9.63;;;8.73;;
21266;SDS011;10791;53.108;18.326;2022-08-04T17:19:01;12.23;;;9.27;;
21266;SDS011;10791;53.108;18.326;2022-08-04T17:24:05;9.63;;;8.77;;
21266;SDS011;10791;53.108;18.326;2022-08-04T17:29:18;11.50;;;8.65;;
21266;SDS011;10791;53.108;18.326;2022-08-04T17:34:24;9.98;;;8.98;;
21266;SDS011;10791;53.108;18.326;2022-08-04T17:39:33;23.42;;;19.20;;
21266;SDS011;10791;53.108;18.326;2022-08-04T17:44:40;27.40;;;22.05;;
21266;SDS011;10791;53.108;18.326;2022-08-04T17:49:46;11.88;;;10.50;;
21266;SDS011;10791;53.108;18.326;2022-08-04T17:55:10;9.80;;;8.77;;
21266;SDS011;10791;53.108;18.326;2022-08-04T18:00:21;11.93;;;9.57;;
21266;SDS011;10791;53.108;18.326;2022-08-04T18:05:34;10.35;;;8.73;;
21266;SDS011;10791;53.108;18.326;2022-08-04T18:10:58;11.45;;;8.75;;
21266;SDS011;10791;53.108;18.326;2022-08-04T18:16:02;14.57;;;9.30;;
21266;SDS011;10791;53.108;18.326;2022-08-04T18:21:13;16.27;;;8.85;;
21266;SDS011;10791;53.108;18.326;2022-08-04T18:26:17;17.40;;;8.95;;
21266;SDS011;10791;53.108;18.326;2022-08-04T18:31:25;12.02;;;9.38;;
21266;SDS011;10791;53.108;18.326;2022-08-04T18:36:28;17.55;;;10.50;;
21266;SDS011;10791;53.108;18.326;2022-08-04T18:41:39;18.33;;;11.02;;
21266;SDS011;10791;53.108;18.326;2022-08-04T18:47:03;16.70;;;10.18;;
21266;SDS011;10791;53.108;18.326;2022-08-04T18:52:26;18.50;;;10.30;;
21266;SDS011;10791;53.108;18.326;2022-08-04T18:57:30;22.98;;;10.90;;
21266;SDS011;10791;53.108;18.326;2022-08-04T19:02:54;12.98;;;10.88;;
21266;SDS011;10791;53.108;18.326;2022-08-04T19:07:58;23.95;;;17.55;;
21266;SDS011;10791;53.108;18.326;2022-08-04T19:13:22;25.95;;;19.45;;
21266;SDS011;10791;53.108;18.326;2022-08-04T19:18:28;22.58;;;18.25;;
21266;SDS011;10791;53.108;18.326;2022-08-04T19:23:37;25.48;;;16.42;;
21266;SDS011;10791;53.108;18.326;2022-08-04T19:29:02;14.55;;;12.18;;
21266;SDS011;10791;53.108;18.326;2022-08-04T19:34:10;10.75;;;9.65;;
21266;SDS011;10791;53.108;18.326;2022-08-04T19:39:16;14.15;;;9.32;;
21266;SDS011;10791;53.108;18.326;2022-08-04T19:44:22;10.60;;;9.10;;
21266;SDS011;10791;53.108;18.326;2022-08-04T19:49:34;13.07;;;9.70;;
21266;SDS011;10791;53.108;18.326;2022-08-04T19:55:10;10.45;;;9.32;;
21266;SDS011;10791;53.108;18.326;2022-08-04T20:00:18;13.75;;;9.80;;
21266;SDS011;10791;53.108;18.326;2022-08-04T20:05:35;10.18;;;9.15;;
21266;SDS011;10791;53.108;18.326;2022-08-04T20:10:56;11.75;;;9.68;;
21266;SDS011;10791;53.108;18.326;2022-08-04T20:16:03;10.10;;;9.10;;
21266;SDS011;10791;53.108;18.326;2022-08-04T20:21:29;15.63;;;9.98;;
21266;SDS011;10791;53.108;18.326;2022-08-04T20:27:00;15.15;;;9.70;;
21266;SDS011;10791;53.108;18.326;2022-08-04T20:32:19;11.45;;;9.13;;
21266;SDS011;10791;53.108;18.326;2022-08-04T20:37:38;11.55;;;9.93;;
21266;SDS011;10791;53.108;18.326;2022-08-04T20:43:03;12.13;;;9.40;;
21266;SDS011;10791;53.108;18.326;2022-08-04T20:48:10;10.50;;;9.40;;
21266;SDS011;10791;53.108;18.326;2022-08-04T20:53:18;15.02;;;9.65;;
21266;SDS011;10791;53.108;18.326;2022-08-04T20:58:33;11.57;;;10.00;;
21266;SDS011;10791;53.108;18.326;2022-08-04T21:03:37;10.68;;;9.48;;
21266;SDS011;10791;53.108;18.326;2022-08-04T21:09:03;15.35;;;8.85;;
21266;SDS011;10791;53.108;18.326;2022-08-04T21:14:16;10.65;;;8.43;;
21266;SDS011;10791;53.108;18.326;2022-08-04T21:19:21;10.73;;;8.98;;
21266;SDS011;10791;53.108;18.326;2022-08-04T21:24:29;9.43;;;8.60;;
21266;SDS011;10791;53.108;18.326;2022-08-04T21:29:33;10.45;;;8.05;;
21266;SDS011;10791;53.108;18.326;2022-08-04T21:34:37;9.27;;;8.05;;
21266;SDS011;10791;53.108;18.326;2022-08-04T21:39:41;8.68;;;7.88;;
21266;SDS011;10791;53.108;18.326;2022-08-04T21:45:00;9.15;;;8.30;;
21266;SDS011;10791;53.108;18.326;2022-08-04T21:50:05;9.38;;;8.40;;
21266;SDS011;10791;53.108;18.326;2022-08-04T21:55:09;11.07;;;7.82;;
21266;SDS011;10791;53.108;18.326;2022-08-04T22:00:12;8.30;;;7.50;;
21266;SDS011;10791;53.108;18.326;2022-08-04T22:05:21;10.27;;;7.70;;
21266;SDS011;10791;53.108;18.326;2022-08-04T22:10:25;8.75;;;7.90;;
21266;SDS011;10791;53.108;18.326;2022-08-04T22:15:34;7.72;;;6.93;;
21266;SDS011;10791;53.108;18.326;2022-08-04T22:20:57;8.02;;;7.22;;
21266;SDS011;10791;53.108;18.326;2022-08-04T22:26:01;10.15;;;7.28;;
21266;SDS011;10791;53.108;18.326;2022-08-04T22:31:07;11.68;;;7.65;;
21266;SDS011;10791;53.108;18.326;2022-08-04T22:36:25;8.27;;;6.68;;
21266;SDS011;10791;53.108;18.326;2022-08-04T22:41:29;9.73;;;7.80;;
21266;SDS011;10791;53.108;18.326;2022-08-04T22:46:50;9.13;;;7.28;;
21266;SDS011;10791;53.108;18.326;2022-08-04T22:51:54;11.70;;;7.43;;
21266;SDS011;10791;53.108;18.326;2022-08-04T22:56:58;8.75;;;7.20;;
21266;SDS011;10791;53.108;18.326;2022-08-04T23:02:01;9.60;;;7.15;;
21266;SDS011;10791;53.108;18.326;2022-08-04T23:07:05;7.85;;;6.70;;
21266;SDS011;10791;53.108;18.326;2022-08-04T23:12:10;7.53;;;6.72;;
21266;SDS011;10791;53.108;18.326;2022-08-04T23:17:29;9.60;;;6.97;;
21266;SDS011;10791;53.108;18.326;2022-08-04T23:22:48;13.25;;;6.93;;
21266;SDS011;10791;53.108;18.326;2022-08-04T23:27:57;8.45;;;6.82;;
21266;SDS011;10791;53.108;18.326;2022-08-04T23:33:04;7.55;;;6.80;;
21266;SDS011;10791;53.108;18.326;2022-08-04T23:38:12;8.30;;;6.88;;
21266;SDS011;10791;53.108;18.326;2022-08-04T23:43:32;8.65;;;7.70;;
21266;SDS011;10791;53.108;18.326;2022-08-04T23:48:56;10.00;;;8.63;;
21266;SDS011;10791;53.108;18.326;2022-08-04T23:54:00;9.95;;;8.95;;
21266;SDS011;10791;53.108;18.326;2022-08-04T23:59:05;12.25;;;9.43;;
